Saturday, December 16, 2017, 9:31 PM EST
Back to Local

KCBE, Cumberland, Greater Cumberland Regional Airport

Location: Wiley Ford, MD, United States Lat: 39.615
Local Time: 9:31 PM EST ( 2:31 GMT) Lon: -78.761
Time Zone: US/Eastern Elev: 774 ft

Show me the last for .
Show Coded

Time T Td Feel RH Dir Speed Gust Alt SLP Vis Weather Sky Remarks
2017-12-16 21:06 32 28 - 86 - Calm - 30.17 - 10 CLR None
2017-12-16 20:46 32 28 29 86 340° 3 - 30.18 - 10 CLR None
2017-12-16 20:26 34 28 31 80 350° 3 - 30.17 - 10 CLR None
2017-12-16 20:06 36 28 31 74 330° 6 - 30.17 - 10 CLR None
2017-12-16 19:46 36 28 32 74 310° 5 - 30.16 - 10 CLR None
2017-12-16 19:26 36 28 32 74 310° 5 - 30.15 - 10 CLR None
2017-12-16 19:06 37 27 - 64 - Calm - 30.14 - 10 CLR None
2017-12-16 18:46 43 27 - 52 - Calm - 30.14 - 10 CLR None
2017-12-16 18:26 43 27 - 52 - Calm - 30.13 - 10 CLR None
2017-12-16 18:06 43 25 41 48 170° 3 - 30.12 - 10 CLR None
2017-12-16 17:46 43 27 40 52 180° 5 - 30.11 - 10 CLR None
2017-12-16 17:26 41 27 37 56 180° 6 - 30.10 - 10 CLR None
2017-12-16 17:06 43 25 41 48 170° 3 - 30.10 - 10 CLR None
2017-12-16 16:46 43 25 40 48 190° 5 - 30.09 - 10 CLR None
2017-12-16 16:26 45 25 42 45 210° 5 - 30.08 - 10 CLR None
2017-12-16 16:06 46 25 45 42 230° 3 - 30.07 - 10 CLR None
2017-12-16 15:46 46 25 44 42 240° 5 - 30.07 - 10 CLR None
2017-12-16 15:26 46 23 44 39 220° 6 - 30.07 - 10 CLR None
2017-12-16 15:06 46 25 39 42 240° 8 18 30.07 - 10 CLR None
2017-12-16 14:46 46 25 39 42 260° 9 20 - - 10 CLR None
2017-12-16 14:26 46 25 38 42 270° 15 23 30.07 - 10 CLR None
2017-12-16 14:06 46 27 39 45 260° 12 22 30.07 - 10 CLR None
2017-12-16 13:46 46 27 41 45 290° 10 - 30.07 - 10 CLR None
2017-12-16 13:26 45 27 36 48 250° 14 21 30.07 - 10 CLR None
2017-12-16 13:06 45 27 37 48 230° 13 20 30.07 - 10 SCT046 SCT090 None
2017-12-16 12:46 45 27 40 48 300° 8 - 30.07 - 10 SCT044 None
2017-12-16 12:26 45 27 36 48 270° 9 22 30.07 - 10 SCT046 None
2017-12-16 12:06 45 27 40 48 220° 9 - 30.07 - 10 SCT046 None
2017-12-16 11:46 43 23 37 45 260° 6 9 30.08 - 10 SCT046 None
2017-12-16 11:26 43 23 39 45 230° 7 - 30.09 - 10 SCT048 None
2017-12-16 11:06 43 23 38 45 210° 8 - 30.09 - 10 CLR None
2017-12-16 10:46 43 23 39 45 210° 7 - 30.09 - 10 CLR None
2017-12-16 10:26 41 23 35 48 210° 9 - 30.10 - 10 CLR None
2017-12-16 10:06 39 23 34 51 210° 7 - 30.10 - 10 CLR None
2017-12-16 09:46 41 23 37 48 230° 6 - 30.10 - 10 CLR None
2017-12-16 09:26 39 23 37 51 240° 3 - 30.10 - 10 CLR None
2017-12-16 09:06 37 23 35 55 200° 3 - 30.11 - 10 CLR None
2017-12-16 08:46 36 23 - 59 - Calm - 30.10 - 10 CLR None
2017-12-16 08:26 34 23 29 64 200° 6 - 30.10 - 10 CLR None
2017-12-16 08:06 34 21 31 59 210° 3 - 30.10 - 10 CLR None
2017-12-16 07:46 34 21 29 59 200° 6 - 30.10 - 10 CLR None
2017-12-16 07:26 34 21 23 59 210° 9 17 30.10 - 10 CLR None
2017-12-16 07:06 32 21 24 63 240° 9 - 30.09 - 10 CLR None
2017-12-16 06:46 32 21 26 63 210° 6 - 30.09 - 10 SCT050 None
2017-12-16 06:26 32 21 27 63 210° 5 - 30.09 - 10 SCT040 BKN050 None
2017-12-16 06:06 32 19 25 59 220° 8 - 30.09 - 10 SCT040 SCT050 None
2017-12-16 05:46 32 19 26 59 240° 7 - 30.09 - 10 BKN040 None
2017-12-16 05:26 32 18 21 54 190° 7 16 30.08 - 10 CLR None
2017-12-16 05:06 32 18 20 54 190° 10 18 30.06 - 10 CLR None
2017-12-16 04:46 32 16 26 50 210° 7 - 30.07 - 10 CLR None
2017-12-16 04:26 32 16 19 50 270° 13 22 30.07 - 10 CLR None
2017-12-16 04:06 32 16 26 50 240° 6 - 30.07 - 10 CLR None
2017-12-16 03:46 32 16 24 50 230° 9 - 30.08 - 10 CLR None
2017-12-16 03:26 32 16 21 50 220° 8 17 30.08 - 10 CLR None
2017-12-16 03:06 32 18 21 54 280° 10 17 30.09 - 10 CLR None
2017-12-16 02:46 32 18 - 54 - Calm - 30.07 - 10 SCT060 None
2017-12-16 02:26 32 16 24 50 230° 9 - 30.07 - 10 BKN060 None
2017-12-16 02:06 32 16 21 50 220° 8 16 30.06 - 10 BKN060 None
2017-12-16 01:46 32 18 20 54 240° 7 18 30.05 - 10 BKN060 None
2017-12-16 01:26 32 18 19 54 280° 16 25 30.06 - 10 SCT049 BKN060 None
2017-12-16 01:06 32 19 20 59 320° 14 18 30.06 - 10 SCT044 BKN049 None
2017-12-16 00:46 32 19 18 59 320° 5 28 30.06 - 10 BKN042 BKN048 None
2017-12-16 00:26 32 19 20 59 260° 10 21 30.05 - 10 SCT010 BKN044 OVC050 None
2017-12-16 00:06 32 21 20 63 310° 10 20 30.04 - 10 SCT008 SCT012 BKN038 None
2017-12-15 23:46 32 19 26 59 270° 7 - 30.04 - 10 SCT013 SCT024 BKN038 None
2017-12-15 23:26 32 19 19 59 290° 15 25 30.03 - 10 SCT008 SCT013 BKN055 None
2017-12-15 23:06 32 19 20 59 280° 13 21 30.02 - 10 SCT046 BKN055 None
2017-12-15 22:46 32 19 20 59 280° 13 21 30.02 - 10 SCT043 BKN055 None
2017-12-15 22:26 32 19 20 59 270° 10 21 30.02 - 10 SCT043 BKN055 None
2017-12-15 22:06 32 18 21 54 290° 12 16 30.01 - 10 SCT045 BKN055 None
2017-12-15 21:46 32 18 19 54 280° 10 23 30.01 - 10 SCT044 SCT049 BKN055 None

Support USWX by starting your Amazon purchase here.